Terminal Aerodrome Forecast
Issued by NWS

Home | Current Version | Previous Version | Text Only | Print | Product List | Glossary On
Versions: 1 2 3 4 5 6 7 8 9 10 11 12 13 14 15 16 17 18 19 20 21 22 23 24 25 26 27
000
FTUS41 KRLX 021900 AAA
TAFCKB
TAF AMD
KCKB 021914Z 0219/0318 25005KT P6SM OVC035
     FM022100 25005KT P6SM VCTS BKN040CB
     FM030100 00000KT P6SM VCTS BKN035CB
     FM030300 00000KT P6SM BKN008
     FM030500 00000KT 5SM BR BKN008
     FM030700 00000KT 1/4SM FG VV001
     FM031200 00000KT 2SM BR BKN008
     FM031400 00000KT 6SM BR SCT010
     FM031500 00000KT P6SM SCT010=

USA.gov is the U.S. government's official web portal to all federal, state and local government web resources and services.